Time;durP1;ratioP1;P1;durP2;ratioP2;P2;SDS_P1;SDS_P2;PMS_P1;PMS_P2;Temp;Humidity;BMP_temperature;BMP_pressure;BME280_temperature;BME280_humidity;BME280_pressure;Samples;Min_cycle;Max_cycle;Signal;HPM_P1;HPM_P2
2021/10/13 00:01:12;;;;;;;8.80;1.83;;;;;;;;;;5023502;28;20228;-71
2021/10/13 00:03:37;;;;;;;7.83;1.53;;;;;;;;;;5015447;28;20270;-71
2021/10/13 00:06:03;;;;;;;9.23;2.03;;;;;;;;;;5027191;28;20598;-72
2021/10/13 00:08:28;;;;;;;12.27;1.83;;;;;;;;;;5017914;28;20192;-72
2021/10/13 00:10:53;;;;;;;7.07;1.73;;;;;;;;;;5026086;28;20170;-72
2021/10/13 00:13:19;;;;;;;9.67;1.50;;;;;;;;;;5020892;28;20186;-72
2021/10/13 00:15:44;;;;;;;7.60;1.20;;;;;;;;;;5025807;28;20186;-72
2021/10/13 00:18:10;;;;;;;7.90;1.47;;;;;;;;;;5014574;28;20267;-72
2021/10/13 00:20:36;;;;;;;12.97;2.07;;;;;;;;;;5026952;28;20198;-72
2021/10/13 00:23:01;;;;;;;6.57;1.47;;;;;;;;;;5022335;28;20189;-72
2021/10/13 00:25:27;;;;;;;5.03;1.93;;;;;;;;;;5019273;28;20198;-72
2021/10/13 00:27:52;;;;;;;11.70;1.67;;;;;;;;;;5025299;28;20186;-72
2021/10/13 00:30:18;;;;;;;14.10;1.90;;;;;;;;;;5018058;28;20206;-72
2021/10/13 00:32:44;;;;;;;12.90;1.47;;;;;;;;;;5026433;28;20204;-72
2021/10/13 00:35:09;;;;;;;9.47;1.47;;;;;;;;;;5014760;28;20186;-72
2021/10/13 00:37:35;;;;;;;11.20;1.80;;;;;;;;;;5023450;28;20217;-72
2021/10/13 00:40:01;;;;;;;8.37;1.80;;;;;;;;;;5018239;28;20294;-72
2021/10/13 00:42:27;;;;;;;9.80;1.77;;;;;;;;;;5025447;28;20631;-72
2021/10/13 00:44:52;;;;;;;5.93;1.40;;;;;;;;;;5017350;28;20203;-72
2021/10/13 00:47:17;;;;;;;13.43;1.90;;;;;;;;;;5025632;28;20616;-72
2021/10/13 00:49:43;;;;;;;11.27;1.97;;;;;;;;;;5017525;28;20221;-72
2021/10/13 00:52:08;;;;;;;5.87;1.67;;;;;;;;;;5025928;28;20232;-72
2021/10/13 00:54:34;;;;;;;7.50;1.40;;;;;;;;;;5026602;28;20256;-72
2021/10/13 00:56:59;;;;;;;6.63;1.70;;;;;;;;;;5016804;28;20209;-73
2021/10/13 00:59:25;;;;;;;9.03;1.47;;;;;;;;;;5021486;28;20191;-72
2021/10/13 01:01:55;;;;;;;7.53;1.47;;;;;;;;;;5018492;28;20954;-72
2021/10/13 01:04:35;;;;;;;8.33;1.50;;;;;;;;;;5021480;28;20186;-72
2021/10/13 01:07:00;;;;;;;8.97;1.90;;;;;;;;;;5017846;28;20220;-72
2021/10/13 01:09:43;;;;;;;7.90;1.33;;;;;;;;;;5023826;28;20263;-72
2021/10/13 01:12:14;;;;;;;6.73;1.40;;;;;;;;;;5016069;28;20644;-72
2021/10/13 01:14:46;;;;;;;11.37;1.87;;;;;;;;;;5025779;28;20265;-72
2021/10/13 01:17:33;;;;;;;12.03;1.70;;;;;;;;;;5016011;28;20229;-72
2021/10/13 01:20:06;;;;;;;4.17;1.37;;;;;;;;;;5024866;28;20304;-72
2021/10/13 01:22:51;;;;;;;4.07;1.20;;;;;;;;;;5018805;28;20198;-72
2021/10/13 01:25:46;;;;;;;9.73;1.77;;;;;;;;;;5026844;28;20196;-72
2021/10/13 01:28:19;;;;;;;6.47;1.73;;;;;;;;;;5020165;28;20174;-72
2021/10/13 01:30:55;;;;;;;9.67;1.80;;;;;;;;;;5028818;28;20189;-72
2021/10/13 01:33:25;;;;;;;8.80;1.80;;;;;;;;;;5019826;28;20207;-72
2021/10/13 01:35:54;;;;;;;7.73;1.73;;;;;;;;;;5045685;28;20182;-72
2021/10/13 01:38:23;;;;;;;12.10;2.27;;;;;;;;;;5017605;28;20178;-72
2021/10/13 01:40:53;;;;;;;10.93;1.73;;;;;;;;;;5035426;28;20307;-72
2021/10/13 01:43:19;;;;;;;4.10;1.70;;;;;;;;;;5020065;28;20209;-72
2021/10/13 01:45:49;;;;;;;8.87;1.87;;;;;;;;;;5029454;28;20271;-72
2021/10/13 01:48:16;;;;;;;6.97;1.80;;;;;;;;;;5019577;28;20186;-73
2021/10/13 01:50:44;;;;;;;7.80;1.70;;;;;;;;;;5027093;28;20184;-72
2021/10/13 01:53:10;;;;;;;8.13;2.07;;;;;;;;;;5017696;28;20707;-72
2021/10/13 01:55:36;;;;;;;12.85;2.22;;;;;;;;;;5030722;28;20178;-72
2021/10/13 01:58:03;;;;;;;5.53;1.70;;;;;;;;;;5019615;28;20210;-72
2021/10/13 02:00:29;;;;;;;7.00;1.80;;;;;;;;;;5030922;28;20304;-73
2021/10/13 02:02:56;;;;;;;11.60;1.87;;;;;;;;;;5024229;28;20629;-73
2021/10/13 02:05:23;;;;;;;8.30;2.17;;;;;;;;;;5020803;28;20186;-73
2021/10/13 02:07:49;;;;;;;3.70;1.43;;;;;;;;;;5030617;28;20240;-73
2021/10/13 02:10:18;;;;;;;6.77;1.60;;;;;;;;;;5020908;28;20195;-73
2021/10/13 02:12:46;;;;;;;7.90;1.57;;;;;;;;;;5026509;28;20225;-73
2021/10/13 02:15:14;;;;;;;5.18;1.73;;;;;;;;;;5021131;28;20529;-73
2021/10/13 02:17:43;;;;;;;5.10;1.20;;;;;;;;;;5027362;28;20182;-73
2021/10/13 02:20:09;;;;;;;6.93;1.50;;;;;;;;;;5020089;28;20692;-72
2021/10/13 02:22:36;;;;;;;6.72;1.38;;;;;;;;;;5027360;28;20186;-73
2021/10/13 02:25:02;;;;;;;8.38;1.85;;;;;;;;;;5020697;28;21515;-73
2021/10/13 02:27:38;;;;;;;7.30;1.38;;;;;;;;;;5028113;28;20265;-72
2021/10/13 02:30:04;;;;;;;9.20;1.97;;;;;;;;;;5018432;28;20263;-72
2021/10/13 02:32:29;;;;;;;10.13;1.67;;;;;;;;;;5028301;28;20174;-72
2021/10/13 02:34:56;;;;;;;9.00;1.75;;;;;;;;;;5018066;28;20186;-72
2021/10/13 02:37:22;;;;;;;9.85;1.50;;;;;;;;;;5027737;28;20186;-73
2021/10/13 02:39:47;;;;;;;9.17;1.50;;;;;;;;;;5018992;28;20293;-73
2021/10/13 02:42:13;;;;;;;11.10;2.80;;;;;;;;;;5029520;28;20343;-73
2021/10/13 02:44:39;;;;;;;8.33;1.40;;;;;;;;;;5026260;28;20189;-73
2021/10/13 02:47:38;;;;;;;8.00;1.47;;;;;;;;;;5014232;28;20214;-73
2021/10/13 02:50:22;;;;;;;11.70;2.17;;;;;;;;;;5025711;28;20261;-73
2021/10/13 02:53:13;;;;;;;7.47;1.70;;;;;;;;;;5026789;28;20186;-74
2021/10/13 02:55:44;;;;;;;7.93;1.33;;;;;;;;;;5021223;28;20182;-73
2021/10/13 02:58:44;;;;;;;7.40;1.50;;;;;;;;;;5027258;28;20687;-73
2021/10/13 03:01:16;;;;;;;8.80;1.63;;;;;;;;;;5018773;28;20257;-73
2021/10/13 03:03:49;;;;;;;6.40;1.38;;;;;;;;;;5025234;28;20181;-73
2021/10/13 03:06:16;;;;;;;10.88;1.48;;;;;;;;;;5019706;28;20186;-73
2021/10/13 03:08:41;;;;;;;6.03;1.63;;;;;;;;;;5024732;28;20224;-73
2021/10/13 03:11:08;;;;;;;14.50;2.03;;;;;;;;;;5025581;28;20186;-72
2021/10/13 03:13:37;;;;;;;11.57;1.80;;;;;;;;;;5021224;28;20186;-72
2021/10/13 03:16:04;;;;;;;15.67;2.37;;;;;;;;;;5020182;28;20328;-72
2021/10/13 03:18:34;;;;;;;11.13;2.10;;;;;;;;;;5034876;28;20197;-72
2021/10/13 03:20:59;;;;;;;11.53;1.53;;;;;;;;;;5026721;28;20202;-73
2021/10/13 03:23:27;;;;;;;8.23;1.80;;;;;;;;;;5020083;28;20515;-73
2021/10/13 03:25:52;;;;;;;8.37;1.60;;;;;;;;;;5024379;28;20236;-73
2021/10/13 03:28:18;;;;;;;10.67;2.33;;;;;;;;;;5021288;28;20190;-73
2021/10/13 03:30:44;;;;;;;11.00;2.00;;;;;;;;;;5024722;28;20205;-73
2021/10/13 03:33:11;;;;;;;6.90;1.70;;;;;;;;;;5020406;28;20213;-73
2021/10/13 03:35:36;;;;;;;9.07;1.57;;;;;;;;;;5025789;28;20208;-73
2021/10/13 03:38:04;;;;;;;7.50;1.80;;;;;;;;;;5017533;28;20253;-72
2021/10/13 03:40:31;;;;;;;11.63;2.03;;;;;;;;;;5026843;28;20654;-73
2021/10/13 03:42:57;;;;;;;5.47;1.83;;;;;;;;;;5028579;28;20178;-73
2021/10/13 03:45:23;;;;;;;11.33;2.17;;;;;;;;;;5016169;28;20654;-73
2021/10/13 03:47:49;;;;;;;16.23;2.13;;;;;;;;;;5028196;28;20182;-73
2021/10/13 03:50:16;;;;;;;8.67;1.90;;;;;;;;;;5016819;28;20181;-73
2021/10/13 03:52:42;;;;;;;6.13;1.83;;;;;;;;;;5027474;28;20190;-72
2021/10/13 03:55:10;;;;;;;12.43;2.03;;;;;;;;;;5014834;28;20198;-73
2021/10/13 03:57:36;;;;;;;7.37;1.60;;;;;;;;;;5023320;28;20653;-73
2021/10/13 04:00:04;;;;;;;8.40;1.70;;;;;;;;;;5014095;28;20241;-73
2021/10/13 04:02:29;;;;;;;10.57;2.07;;;;;;;;;;5024681;28;20223;-73
2021/10/13 04:04:54;;;;;;;7.70;1.70;;;;;;;;;;5017257;28;20500;-73
2021/10/13 04:07:20;;;;;;;10.77;1.77;;;;;;;;;;5025922;28;21019;-73
2021/10/13 04:09:45;;;;;;;9.77;1.57;;;;;;;;;;5016954;28;20654;-73
2021/10/13 04:12:10;;;;;;;11.80;1.80;;;;;;;;;;5021595;28;20268;-73
2021/10/13 04:14:36;;;;;;;7.83;1.97;;;;;;;;;;5023500;28;20491;-73
2021/10/13 04:17:01;;;;;;;8.10;1.47;;;;;;;;;;5020856;28;20534;-73
2021/10/13 04:19:26;;;;;;;12.03;1.73;;;;;;;;;;5027965;28;20703;-73
2021/10/13 04:21:52;;;;;;;8.43;1.65;;;;;;;;;;5019398;28;20212;-73
2021/10/13 04:24:17;;;;;;;15.97;2.43;;;;;;;;;;5027240;28;20185;-73
2021/10/13 04:26:43;;;;;;;10.60;2.07;;;;;;;;;;5018926;28;20186;-73
2021/10/13 04:29:08;;;;;;;6.43;1.50;;;;;;;;;;5024283;28;20193;-73
2021/10/13 04:31:33;;;;;;;8.50;1.70;;;;;;;;;;5016749;28;20189;-73
2021/10/13 04:33:59;;;;;;;7.43;1.40;;;;;;;;;;5024680;28;20201;-73
2021/10/13 04:36:24;;;;;;;6.88;1.52;;;;;;;;;;5013696;28;20275;-73
2021/10/13 04:38:50;;;;;;;6.73;1.40;;;;;;;;;;5027161;28;20190;-72
2021/10/13 04:41:15;;;;;;;9.90;2.00;;;;;;;;;;5017660;28;25183;-72
2021/10/13 04:43:40;;;;;;;4.67;1.47;;;;;;;;;;5024852;28;20190;-72
2021/10/13 04:46:06;;;;;;;14.55;2.35;;;;;;;;;;5025189;28;20186;-73
2021/10/13 04:48:31;;;;;;;7.35;1.80;;;;;;;;;;5020748;28;20190;-73
2021/10/13 04:50:56;;;;;;;6.10;1.73;;;;;;;;;;5024890;28;20186;-73
2021/10/13 04:53:22;;;;;;;9.88;1.67;;;;;;;;;;5018512;28;20189;-73
2021/10/13 04:55:47;;;;;;;8.93;1.48;;;;;;;;;;5023071;28;20629;-72
2021/10/13 04:58:12;;;;;;;8.93;1.83;;;;;;;;;;5017693;28;20210;-72
2021/10/13 05:00:38;;;;;;;12.50;1.93;;;;;;;;;;5023331;28;20657;-73
2021/10/13 05:03:03;;;;;;;7.20;1.95;;;;;;;;;;5016197;28;20189;-73
2021/10/13 05:05:30;;;;;;;9.95;1.80;;;;;;;;;;5022763;28;20182;-73
2021/10/13 05:07:55;;;;;;;11.40;1.85;;;;;;;;;;5012405;28;20281;-73
2021/10/13 05:10:20;;;;;;;6.03;1.50;;;;;;;;;;5022067;28;20259;-73
2021/10/13 05:12:45;;;;;;;8.23;1.63;;;;;;;;;;5015813;28;20185;-73
2021/10/13 05:15:11;;;;;;;9.00;1.83;;;;;;;;;;5019882;28;20189;-73
2021/10/13 05:17:36;;;;;;;8.07;1.80;;;;;;;;;;5021815;28;20204;-72
2021/10/13 05:20:02;;;;;;;6.80;1.58;;;;;;;;;;5013989;28;20218;-72
2021/10/13 05:22:27;;;;;;;7.03;1.40;;;;;;;;;;5023882;28;20244;-73
2021/10/13 05:24:53;;;;;;;11.55;1.63;;;;;;;;;;5013421;28;20186;-73
2021/10/13 05:27:18;;;;;;;9.88;1.83;;;;;;;;;;5020502;28;20193;-73
2021/10/13 05:29:44;;;;;;;15.00;2.10;;;;;;;;;;5014556;28;20664;-73
2021/10/13 05:32:09;;;;;;;8.27;2.13;;;;;;;;;;5022970;28;20228;-73
2021/10/13 05:34:35;;;;;;;11.70;1.70;;;;;;;;;;5017839;28;20696;-73
2021/10/13 05:37:00;;;;;;;6.65;1.73;;;;;;;;;;5027405;28;20190;-73
2021/10/13 05:39:26;;;;;;;9.88;1.90;;;;;;;;;;5013903;28;20194;-73
2021/10/13 05:41:51;;;;;;;9.68;2.00;;;;;;;;;;5025685;28;20237;-73
2021/10/13 05:44:17;;;;;;;6.93;1.45;;;;;;;;;;5021669;28;20248;-73
2021/10/13 05:46:42;;;;;;;8.00;1.80;;;;;;;;;;5024705;28;20589;-73
2021/10/13 05:49:08;;;;;;;9.00;2.03;;;;;;;;;;5020050;28;20182;-73
2021/10/13 05:51:33;;;;;;;5.77;1.47;;;;;;;;;;5016681;28;20190;-72
2021/10/13 05:53:59;;;;;;;9.73;1.53;;;;;;;;;;5026217;28;20281;-73
2021/10/13 05:56:24;;;;;;;9.00;1.70;;;;;;;;;;5016095;28;20221;-73
2021/10/13 05:58:52;;;;;;;6.75;1.45;;;;;;;;;;5024607;28;20261;-73
2021/10/13 06:01:20;;;;;;;13.93;1.87;;;;;;;;;;5016363;28;20221;-73
2021/10/13 06:03:45;;;;;;;8.73;1.53;;;;;;;;;;5019042;28;20186;-73
2021/10/13 06:06:10;;;;;;;9.20;1.97;;;;;;;;;;5014742;28;20529;-72
2021/10/13 06:08:35;;;;;;;9.83;1.90;;;;;;;;;;5027617;28;20705;-73
2021/10/13 06:11:01;;;;;;;8.07;2.00;;;;;;;;;;5019683;28;20208;-72
2021/10/13 06:13:26;;;;;;;11.10;1.43;;;;;;;;;;5027350;28;20533;-72
2021/10/13 06:15:53;;;;;;;10.10;1.37;;;;;;;;;;4321293;28;10000851;-73
2021/10/13 06:18:18;;;;;;;8.67;1.20;;;;;;;;;;5022331;28;20182;-73
2021/10/13 06:20:44;;;;;;;11.13;2.03;;;;;;;;;;5018289;28;20441;-73
2021/10/13 06:23:09;;;;;;;12.57;1.73;;;;;;;;;;5005140;28;20206;-72
2021/10/13 06:25:34;;;;;;;9.00;1.83;;;;;;;;;;5012874;28;20187;-73
2021/10/13 06:28:00;;;;;;;9.43;1.83;;;;;;;;;;5006415;28;20245;-72
2021/10/13 06:30:27;;;;;;;8.93;1.83;;;;;;;;;;5017176;28;20186;-72
2021/10/13 06:32:53;;;;;;;8.07;1.83;;;;;;;;;;5006747;28;20297;-73
2021/10/13 06:35:18;;;;;;;12.03;2.43;;;;;;;;;;5017020;28;20740;-72
2021/10/13 06:37:46;;;;;;;4.30;1.60;;;;;;;;;;5012916;28;20528;-72
2021/10/13 06:40:12;;;;;;;11.57;1.97;;;;;;;;;;5022563;28;20209;-73
2021/10/13 06:42:37;;;;;;;8.38;1.42;;;;;;;;;;5014419;28;20194;-72
2021/10/13 06:45:03;;;;;;;6.38;1.88;;;;;;;;;;5013681;28;20194;-73
2021/10/13 06:47:28;;;;;;;12.63;1.83;;;;;;;;;;5008658;28;20799;-72
2021/10/13 06:49:53;;;;;;;12.07;1.70;;;;;;;;;;5017567;28;20220;-72
2021/10/13 06:52:19;;;;;;;7.93;1.77;;;;;;;;;;5021565;28;20728;-72
2021/10/13 06:54:44;;;;;;;7.22;1.83;;;;;;;;;;5011346;28;20196;-72
2021/10/13 06:57:09;;;;;;;9.27;2.33;;;;;;;;;;5022727;28;20301;-72
2021/10/13 06:59:35;;;;;;;5.73;1.73;;;;;;;;;;5012849;28;20593;-73
2021/10/13 07:02:00;;;;;;;11.15;1.88;;;;;;;;;;5021864;28;20224;-73
2021/10/13 07:04:25;;;;;;;8.53;2.13;;;;;;;;;;5019341;28;20256;-73
2021/10/13 07:06:51;;;;;;;4.77;1.23;;;;;;;;;;5026029;28;20610;-73
2021/10/13 07:09:16;;;;;;;7.25;1.80;;;;;;;;;;5018329;28;20240;-73
2021/10/13 07:11:41;;;;;;;6.40;1.90;;;;;;;;;;5026426;28;20274;-73
2021/10/13 07:14:07;;;;;;;10.63;2.00;;;;;;;;;;5017042;28;20194;-73
2021/10/13 07:16:32;;;;;;;9.00;1.63;;;;;;;;;;5025516;28;20243;-73
2021/10/13 07:18:58;;;;;;;8.93;1.80;;;;;;;;;;5017680;28;20190;-73
2021/10/13 07:21:23;;;;;;;14.30;1.98;;;;;;;;;;5023065;28;20210;-73
2021/10/13 07:23:49;;;;;;;10.37;1.90;;;;;;;;;;5023546;28;20182;-73
2021/10/13 07:26:14;;;;;;;12.70;1.83;;;;;;;;;;5017803;28;20197;-74
2021/10/13 07:28:41;;;;;;;8.17;1.67;;;;;;;;;;5026932;28;20178;-74
2021/10/13 07:31:08;;;;;;;12.03;1.80;;;;;;;;;;5018396;28;20204;-73
2021/10/13 07:33:34;;;;;;;5.95;1.65;;;;;;;;;;5028060;28;20653;-73
2021/10/13 07:36:00;;;;;;;13.35;2.05;;;;;;;;;;5019944;28;20209;-73
2021/10/13 07:38:26;;;;;;;7.47;1.67;;;;;;;;;;5027064;28;20271;-73
2021/10/13 07:40:52;;;;;;;6.00;1.70;;;;;;;;;;5019197;28;20306;-73
2021/10/13 07:43:17;;;;;;;8.30;2.23;;;;;;;;;;5025129;28;20633;-73
2021/10/13 07:45:43;;;;;;;13.07;1.98;;;;;;;;;;5017938;28;20550;-73
2021/10/13 07:48:09;;;;;;;7.90;1.83;;;;;;;;;;5026029;28;20186;-73
2021/10/13 07:50:34;;;;;;;6.00;1.57;;;;;;;;;;5018527;28;20174;-73
2021/10/13 07:53:00;;;;;;;10.52;1.65;;;;;;;;;;5024679;28;20186;-73
2021/10/13 07:55:25;;;;;;;13.48;2.42;;;;;;;;;;5027030;28;20178;-72
2021/10/13 07:57:50;;;;;;;10.73;1.95;;;;;;;;;;5016861;28;20276;-72
2021/10/13 08:00:20;;;;;;;7.25;1.63;;;;;;;;;;5027625;28;20229;-73
2021/10/13 08:02:47;;;;;;;8.90;1.90;;;;;;;;;;5018423;28;20182;-73
2021/10/13 08:05:15;;;;;;;8.73;2.00;;;;;;;;;;5024419;28;22665;-73
2021/10/13 08:07:41;;;;;;;7.18;1.70;;;;;;;;;;5016659;28;20204;-73
2021/10/13 08:10:07;;;;;;;5.20;1.50;;;;;;;;;;5026967;28;20279;-73
2021/10/13 08:12:32;;;;;;;5.85;1.42;;;;;;;;;;5016304;28;20565;-74
2021/10/13 08:14:59;;;;;;;8.35;1.40;;;;;;;;;;5024720;28;20517;-73
2021/10/13 08:17:24;;;;;;;7.93;1.30;;;;;;;;;;5016724;28;20189;-73
2021/10/13 08:19:50;;;;;;;10.82;1.45;;;;;;;;;;5025381;28;20254;-73
2021/10/13 08:22:15;;;;;;;5.53;1.13;;;;;;;;;;5015919;28;20279;-73
2021/10/13 08:24:40;;;;;;;6.90;1.45;;;;;;;;;;5028481;28;20178;-73
2021/10/13 08:27:06;;;;;;;7.13;1.48;;;;;;;;;;5023669;28;20193;-72
2021/10/13 08:29:31;;;;;;;5.78;1.30;;;;;;;;;;5023059;28;20246;-73
2021/10/13 08:31:57;;;;;;;5.32;1.40;;;;;;;;;;5026719;28;20186;-73
2021/10/13 08:34:22;;;;;;;6.97;1.38;;;;;;;;;;5015481;28;20198;-73
2021/10/13 08:36:47;;;;;;;5.47;1.20;;;;;;;;;;5028291;28;20186;-73
2021/10/13 08:39:13;;;;;;;8.57;1.30;;;;;;;;;;5019026;28;20557;-72
2021/10/13 08:41:38;;;;;;;6.95;1.27;;;;;;;;;;5022953;28;20286;-72
2021/10/13 08:44:04;;;;;;;5.95;1.05;;;;;;;;;;5019257;28;20647;-72
2021/10/13 08:46:29;;;;;;;8.57;1.20;;;;;;;;;;5024416;28;20506;-72
2021/10/13 08:48:55;;;;;;;10.23;1.30;;;;;;;;;;5017287;28;20313;-73
2021/10/13 08:51:20;;;;;;;9.43;1.40;;;;;;;;;;5025480;28;20200;-72
2021/10/13 08:53:45;;;;;;;6.43;1.00;;;;;;;;;;5018936;28;20276;-72
2021/10/13 08:56:11;;;;;;;5.85;1.35;;;;;;;;;;5027743;28;20230;-72
2021/10/13 08:58:41;;;;;;;4.80;1.42;;;;;;;;;;5026753;28;20778;-72
2021/10/13 09:01:10;;;;;;;5.43;1.00;;;;;;;;;;5021554;28;20230;-72
2021/10/13 09:03:41;;;;;;;5.40;1.08;;;;;;;;;;5025962;28;20198;-72
2021/10/13 09:06:23;;;;;;;10.55;1.17;;;;;;;;;;5017962;28;20272;-72
2021/10/13 09:08:55;;;;;;;8.43;1.13;;;;;;;;;;5023823;28;20318;-73
2021/10/13 09:11:44;;;;;;;4.45;1.50;;;;;;;;;;5015979;28;20293;-72
2021/10/13 09:14:20;;;;;;;6.03;1.15;;;;;;;;;;5026082;28;20205;-73
2021/10/13 09:16:57;;;;;;;3.72;0.95;;;;;;;;;;5019595;28;20193;-72
2021/10/13 09:19:36;;;;;;;6.97;1.35;;;;;;;;;;5022779;28;20189;-72
2021/10/13 09:22:04;;;;;;;5.82;1.05;;;;;;;;;;5017307;28;20236;-71
2021/10/13 09:24:31;;;;;;;5.63;0.95;;;;;;;;;;5025464;28;20189;-72
2021/10/13 09:27:16;;;;;;;9.13;1.00;;;;;;;;;;5016857;28;20198;-72
2021/10/13 09:29:42;;;;;;;9.48;2.17;;;;;;;;;;5026629;28;20182;-73
2021/10/13 09:32:08;;;;;;;7.07;1.50;;;;;;;;;;5014660;28;20542;-73
2021/10/13 09:34:33;;;;;;;5.63;1.00;;;;;;;;;;5025927;28;20312;-73
2021/10/13 09:36:59;;;;;;;5.80;1.02;;;;;;;;;;5017554;28;20277;-73
2021/10/13 09:39:28;;;;;;;4.13;1.08;;;;;;;;;;5024049;28;20191;-74
2021/10/13 09:42:05;;;;;;;5.80;1.10;;;;;;;;;;5016812;28;20273;-73
2021/10/13 09:44:43;;;;;;;8.65;1.15;;;;;;;;;;5029881;28;20360;-73
2021/10/13 09:47:11;;;;;;;8.38;1.35;;;;;;;;;;5021229;28;20242;-73
2021/10/13 09:49:44;;;;;;;7.30;1.08;;;;;;;;;;5030707;28;20182;-74
2021/10/13 09:52:18;;;;;;;5.38;0.90;;;;;;;;;;5019767;28;20224;-74
2021/10/13 09:54:55;;;;;;;7.57;1.75;;;;;;;;;;5023891;28;20202;-74
2021/10/13 09:57:26;;;;;;;5.97;1.27;;;;;;;;;;5022426;28;20266;-73
2021/10/13 10:00:05;;;;;;;7.07;1.17;;;;;;;;;;5027587;28;20261;-73
2021/10/13 10:02:34;;;;;;;6.85;1.15;;;;;;;;;;5021671;28;20273;-73
2021/10/13 10:05:12;;;;;;;9.02;1.50;;;;;;;;;;5024925;28;20214;-72
2021/10/13 10:07:46;;;;;;;7.75;0.95;;;;;;;;;;5021892;28;20244;-73
2021/10/13 10:10:16;;;;;;;4.38;1.10;;;;;;;;;;5028669;28;20521;-73
2021/10/13 10:13:06;;;;;;;4.68;1.05;;;;;;;;;;5020994;28;20189;-73
2021/10/13 10:15:36;;;;;;;8.55;1.02;;;;;;;;;;5020772;28;20827;-73
2021/10/13 10:18:23;;;;;;;6.63;0.90;;;;;;;;;;4322057;28;10000816;-80
2021/10/13 10:20:49;;;;;;;6.05;0.80;;;;;;;;;;5025040;28;20230;-74
2021/10/13 10:23:31;;;;;;;4.68;1.10;;;;;;;;;;5015157;28;20213;-73
2021/10/13 10:26:00;;;;;;;5.20;1.00;;;;;;;;;;5023023;28;20525;-73
2021/10/13 10:28:52;;;;;;;5.88;0.70;;;;;;;;;;5013468;28;20194;-73
2021/10/13 10:31:36;;;;;;;4.82;0.70;;;;;;;;;;5025970;28;20244;-72
2021/10/13 10:34:16;;;;;;;2.97;0.85;;;;;;;;;;5016126;28;20251;-73
2021/10/13 10:36:44;;;;;;;3.13;0.50;;;;;;;;;;5024958;28;20193;-72
2021/10/13 10:39:18;;;;;;;8.60;1.17;;;;;;;;;;5016109;28;20194;-73
2021/10/13 10:41:45;;;;;;;8.82;1.27;;;;;;;;;;5023146;28;21170;-73
2021/10/13 10:44:29;;;;;;;6.10;1.20;;;;;;;;;;5013792;28;20228;-73
2021/10/13 10:47:08;;;;;;;2.33;0.60;;;;;;;;;;5021055;28;20309;-73
2021/10/13 10:49:45;;;;;;;5.90;0.90;;;;;;;;;;5021013;28;20194;-72
2021/10/13 10:52:30;;;;;;;2.28;0.85;;;;;;;;;;5022140;28;20217;-73
2021/10/13 10:54:58;;;;;;;4.25;0.77;;;;;;;;;;5013696;28;20244;-73
2021/10/13 10:57:37;;;;;;;5.03;0.82;;;;;;;;;;5023741;28;20218;-73
2021/10/13 11:00:22;;;;;;;4.88;0.70;;;;;;;;;;5017492;28;20317;-72
2021/10/13 11:03:11;;;;;;;6.65;0.70;;;;;;;;;;5009157;28;20669;-72
2021/10/13 11:05:36;;;;;;;3.88;0.60;;;;;;;;;;5013478;28;20193;-73
2021/10/13 11:08:02;;;;;;;3.20;0.65;;;;;;;;;;5024773;28;20656;-72
2021/10/13 11:10:27;;;;;;;2.42;0.60;;;;;;;;;;5015653;28;20596;-73
2021/10/13 11:12:57;;;;;;;4.13;0.43;;;;;;;;;;5022596;28;20190;-72
2021/10/13 11:15:28;;;;;;;4.78;0.70;;;;;;;;;;5016072;28;20315;-72
2021/10/13 11:17:54;;;;;;;5.20;0.70;;;;;;;;;;5020006;28;20179;-75
2021/10/13 11:20:26;;;;;;;3.85;0.88;;;;;;;;;;5021088;28;20277;-76
2021/10/13 11:22:59;;;;;;;7.03;0.65;;;;;;;;;;5014930;28;20815;-72
2021/10/13 11:25:25;;;;;;;6.15;0.80;;;;;;;;;;5022976;28;20190;-72
2021/10/13 11:28:02;;;;;;;3.67;0.60;;;;;;;;;;5015487;28;20201;-73
2021/10/13 11:30:29;;;;;;;6.47;0.75;;;;;;;;;;5022532;28;20193;-72
2021/10/13 11:32:55;;;;;;;6.93;0.80;;;;;;;;;;5012100;28;20345;-72
2021/10/13 11:35:21;;;;;;;4.30;0.85;;;;;;;;;;5024152;28;20568;-72
2021/10/13 11:37:49;;;;;;;3.30;0.65;;;;;;;;;;5016673;28;20186;-72
2021/10/13 11:40:15;;;;;;;4.10;1.00;;;;;;;;;;5019285;28;20194;-72
2021/10/13 11:42:41;;;;;;;3.63;0.88;;;;;;;;;;5016866;28;20198;-72
2021/10/13 11:45:13;;;;;;;4.07;0.77;;;;;;;;;;5019630;28;20213;-72
2021/10/13 11:47:38;;;;;;;9.38;1.10;;;;;;;;;;5014617;28;20297;-73
2021/10/13 11:50:24;;;;;;;6.22;1.05;;;;;;;;;;5022635;28;20627;-72
2021/10/13 11:52:53;;;;;;;5.78;0.82;;;;;;;;;;5014779;28;20347;-72
2021/10/13 11:55:20;;;;;;;4.60;0.80;;;;;;;;;;5023733;28;20530;-73
2021/10/13 11:57:54;;;;;;;4.03;0.90;;;;;;;;;;5013695;28;21447;-72
2021/10/13 12:00:21;;;;;;;5.68;0.70;;;;;;;;;;5017786;28;20253;-72
2021/10/13 12:03:02;;;;;;;6.05;0.50;;;;;;;;;;5012466;28;20230;-72
2021/10/13 12:05:30;;;;;;;4.43;0.73;;;;;;;;;;5019844;28;20197;-72
2021/10/13 12:08:10;;;;;;;1.55;0.77;;;;;;;;;;5014968;28;20190;-72
2021/10/13 12:10:37;;;;;;;5.25;0.68;;;;;;;;;;5025557;28;20252;-72
2021/10/13 12:13:04;;;;;;;3.03;0.70;;;;;;;;;;5024739;28;20198;-72
2021/10/13 12:15:30;;;;;;;3.95;0.75;;;;;;;;;;5020491;28;20299;-74
2021/10/13 12:18:09;;;;;;;5.07;1.05;;;;;;;;;;5028264;28;20523;-73
2021/10/13 12:20:34;;;;;;;4.90;0.70;;;;;;;;;;5016169;28;20218;-74
2021/10/13 12:23:12;;;;;;;8.23;0.65;;;;;;;;;;5026339;28;20189;-74
2021/10/13 12:25:37;;;;;;;2.00;0.30;;;;;;;;;;5015759;28;20189;-76
2021/10/13 12:28:12;;;;;;;3.05;0.60;;;;;;;;;;5027329;28;20269;-73
2021/10/13 12:30:38;;;;;;;3.17;0.40;;;;;;;;;;5015924;28;20340;-75
2021/10/13 12:33:06;;;;;;;3.83;0.60;;;;;;;;;;5026933;28;20262;-73
2021/10/13 12:35:32;;;;;;;4.57;0.50;;;;;;;;;;5014057;28;20194;-73
2021/10/13 12:37:57;;;;;;;5.18;0.70;;;;;;;;;;5025695;28;20185;-73
2021/10/13 12:40:22;;;;;;;3.05;0.43;;;;;;;;;;5015129;28;20193;-74
2021/10/13 12:42:48;;;;;;;4.80;0.57;;;;;;;;;;5025046;28;20230;-73
2021/10/13 12:45:13;;;;;;;5.07;0.77;;;;;;;;;;5018691;28;20549;-72
2021/10/13 12:47:39;;;;;;;6.13;0.77;;;;;;;;;;5022931;28;20236;-74
2021/10/13 12:50:13;;;;;;;2.58;0.57;;;;;;;;;;5017532;28;20194;-73
2021/10/13 12:52:39;;;;;;;4.60;0.60;;;;;;;;;;5025481;28;20197;-72
2021/10/13 12:55:05;;;;;;;2.35;0.57;;;;;;;;;;5026174;28;20237;-72
2021/10/13 12:57:31;;;;;;;5.05;0.70;;;;;;;;;;5017019;28;20233;-72
2021/10/13 12:59:58;;;;;;;2.67;0.55;;;;;;;;;;5024671;28;20234;-73
2021/10/13 13:02:24;;;;;;;3.97;0.63;;;;;;;;;;5011620;28;20205;-73
2021/10/13 13:04:50;;;;;;;1.50;0.40;;;;;;;;;;5025044;28;20820;-73
2021/10/13 13:07:15;;;;;;;3.90;0.70;;;;;;;;;;5017511;28;20190;-73
2021/10/13 13:09:42;;;;;;;3.78;0.70;;;;;;;;;;5025483;28;20311;-73
2021/10/13 13:12:07;;;;;;;3.35;0.50;;;;;;;;;;5015722;28;20193;-72
2021/10/13 13:14:33;;;;;;;2.90;0.40;;;;;;;;;;5019736;28;20190;-73
2021/10/13 13:16:58;;;;;;;2.15;0.40;;;;;;;;;;5016620;28;20251;-72
2021/10/13 13:19:24;;;;;;;5.43;0.80;;;;;;;;;;5023743;28;20194;-73
2021/10/13 13:21:51;;;;;;;4.63;0.60;;;;;;;;;;5020221;28;20214;-72
2021/10/13 13:24:17;;;;;;;3.97;0.60;;;;;;;;;;5027198;28;20186;-73
2021/10/13 13:26:44;;;;;;;2.28;0.50;;;;;;;;;;5029145;28;20204;-73
2021/10/13 13:29:09;;;;;;;3.35;0.63;;;;;;;;;;5020843;28;20643;-72
2021/10/13 13:31:34;;;;;;;6.53;0.73;;;;;;;;;;5028304;28;20198;-73
2021/10/13 13:34:00;;;;;;;2.75;0.68;;;;;;;;;;5018432;28;20700;-74
2021/10/13 13:36:25;;;;;;;3.13;0.60;;;;;;;;;;5030878;28;20231;-73
2021/10/13 13:38:51;;;;;;;2.63;0.50;;;;;;;;;;5019839;28;20205;-74
2021/10/13 13:41:18;;;;;;;2.47;0.50;;;;;;;;;;5024500;28;20213;-72
2021/10/13 13:43:43;;;;;;;5.55;0.60;;;;;;;;;;5020090;28;20190;-73
2021/10/13 13:46:17;;;;;;;1.70;0.65;;;;;;;;;;5028284;28;20186;-73
2021/10/13 13:48:44;;;;;;;4.80;1.10;;;;;;;;;;5018214;28;20282;-72
2021/10/13 13:51:09;;;;;;;1.10;0.50;;;;;;;;;;5027797;28;20225;-73
2021/10/13 13:53:35;;;;;;;3.47;0.40;;;;;;;;;;5020976;28;20213;-72
2021/10/13 13:56:00;;;;;;;3.92;0.63;;;;;;;;;;5027738;28;20251;-73
2021/10/13 13:58:26;;;;;;;2.47;0.50;;;;;;;;;;5025403;28;20709;-72
2021/10/13 14:00:51;;;;;;;4.95;0.40;;;;;;;;;;5017981;28;20307;-72
2021/10/13 14:03:17;;;;;;;1.23;0.40;;;;;;;;;;5027664;28;20182;-73
2021/10/13 14:05:42;;;;;;;2.30;0.50;;;;;;;;;;5017804;28;20190;-72
2021/10/13 14:08:08;;;;;;;1.50;0.50;;;;;;;;;;5026538;28;20212;-72
2021/10/13 14:10:35;;;;;;;2.17;0.68;;;;;;;;;;5020145;28;20265;-73
2021/10/13 14:13:01;;;;;;;2.80;0.80;;;;;;;;;;5028133;28;20380;-73
2021/10/13 14:15:26;;;;;;;3.10;0.77;;;;;;;;;;5019539;28;20243;-72
2021/10/13 14:17:52;;;;;;;2.80;0.70;;;;;;;;;;5029095;28;20194;-73
2021/10/13 14:20:17;;;;;;;2.45;0.98;;;;;;;;;;5014975;28;20634;-72
2021/10/13 14:22:42;;;;;;;6.78;0.65;;;;;;;;;;4330161;28;10000499;-72
2021/10/13 14:25:08;;;;;;;3.85;1.23;;;;;;;;;;5013628;28;20202;-72
2021/10/13 14:27:34;;;;;;;2.63;0.65;;;;;;;;;;5020563;28;20198;-72
2021/10/13 14:29:59;;;;;;;4.85;0.82;;;;;;;;;;5018099;28;20209;-72
2021/10/13 14:32:25;;;;;;;5.03;0.75;;;;;;;;;;5010430;28;20178;-72
2021/10/13 14:34:52;;;;;;;4.10;0.75;;;;;;;;;;5020947;28;20186;-71
2021/10/13 14:37:19;;;;;;;4.63;0.73;;;;;;;;;;5009469;28;20276;-71
2021/10/13 14:39:48;;;;;;;2.80;0.90;;;;;;;;;;5020492;28;20201;-71
2021/10/13 14:42:16;;;;;;;8.40;1.10;;;;;;;;;;5011144;28;20221;-73
2021/10/13 14:44:44;;;;;;;7.57;1.13;;;;;;;;;;5022536;28;20300;-72
2021/10/13 14:47:09;;;;;;;3.08;0.98;;;;;;;;;;5011416;28;20189;-72